Terminal Aerodrome Forecast
Issued by NWS

Current Version | Previous Version | Text Only | Print | Product List | Glossary On
Versions: 1 2 3 4 5 6 7 8 9 10 11 12 13 14 15 16 17 18 19 20 21
615
FTUS41 KGYX 292322
TAFHIE
TAF
KHIE 292322Z 3000/3024 29004KT P6SM BKN035
     FM300400 28003KT P6SM OVC050
     FM301400 31007KT P6SM FEW080=

USA.gov is the U.S. government's official web portal to all federal, state and local government web resources and services.